sensor_id;sensor_type;location;lat;lon;timestamp;temperature;humidity
19363;DHT22;9817;50.80926400;5.16316200;2024-03-23T00:52:22;8.20;99.90
19363;DHT22;9817;50.80926400;5.16316200;2024-03-23T00:54:47;8.10;99.90
19363;DHT22;9817;50.80926400;5.16316200;2024-03-23T00:57:13;8.20;99.90
19363;DHT22;9817;50.80926400;5.16316200;2024-03-23T00:59:38;8.20;99.90
19363;DHT22;9817;50.80926400;5.16316200;2024-03-23T01:02:04;8.30;99.90
19363;DHT22;9817;50.80926400;5.16316200;2024-03-23T01:04:30;8.40;99.90
19363;DHT22;9817;50.80926400;5.16316200;2024-03-23T01:06:55;8.60;99.90
19363;DHT22;9817;50.80926400;5.16316200;2024-03-23T01:09:21;8.60;99.90
19363;DHT22;9817;50.80926400;5.16316200;2024-03-23T01:11:48;8.50;99.90
19363;DHT22;9817;50.80926400;5.16316200;2024-03-23T01:14:14;8.60;99.90
19363;DHT22;9817;50.80926400;5.16316200;2024-03-23T01:16:39;8.70;99.90
19363;DHT22;9817;50.80926400;5.16316200;2024-03-23T01:19:05;8.80;99.90
19363;DHT22;9817;50.80926400;5.16316200;2024-03-23T01:21:31;8.80;99.90
19363;DHT22;9817;50.80926400;5.16316200;2024-03-23T01:23:57;8.90;99.90
19363;DHT22;9817;50.80926400;5.16316200;2024-03-23T01:26:23;8.80;99.90
19363;DHT22;9817;50.80926400;5.16316200;2024-03-23T01:28:48;8.80;99.90
19363;DHT22;9817;50.80926400;5.16316200;2024-03-23T01:31:14;8.80;99.90
19363;DHT22;9817;50.80926400;5.16316200;2024-03-23T01:33:41;8.70;99.90
19363;DHT22;9817;50.80926400;5.16316200;2024-03-23T01:36:07;8.80;99.90
19363;DHT22;9817;50.80926400;5.16316200;2024-03-23T01:38:32;8.90;99.90
19363;DHT22;9817;50.80926400;5.16316200;2024-03-23T01:40:58;8.80;99.90
19363;DHT22;9817;50.80926400;5.16316200;2024-03-23T01:43:24;8.60;99.90
19363;DHT22;9817;50.80926400;5.16316200;2024-03-23T01:45:50;8.50;99.90
19363;DHT22;9817;50.80926400;5.16316200;2024-03-23T01:48:19;8.50;99.90
19363;DHT22;9817;50.80926400;5.16316200;2024-03-23T01:50:45;8.60;99.90
19363;DHT22;9817;50.80926400;5.16316200;2024-03-23T01:53:12;8.60;99.90
19363;DHT22;9817;50.80926400;5.16316200;2024-03-23T01:55:39;8.70;99.90
19363;DHT22;9817;50.80926400;5.16316200;2024-03-23T01:58:04;8.70;99.90
19363;DHT22;9817;50.80926400;5.16316200;2024-03-23T02:00:30;8.80;99.90
19363;DHT22;9817;50.80926400;5.16316200;2024-03-23T02:02:55;9.00;99.90
19363;DHT22;9817;50.80926400;5.16316200;2024-03-23T02:05:22;9.10;99.90
19363;DHT22;9817;50.80926400;5.16316200;2024-03-23T02:07:47;9.00;99.90
19363;DHT22;9817;50.80926400;5.16316200;2024-03-23T02:10:13;8.90;99.90
19363;DHT22;9817;50.80926400;5.16316200;2024-03-23T02:12:39;8.90;99.90
19363;DHT22;9817;50.80926400;5.16316200;2024-03-23T02:15:05;8.80;99.90
19363;DHT22;9817;50.80926400;5.16316200;2024-03-23T02:17:33;8.70;99.90
19363;DHT22;9817;50.80926400;5.16316200;2024-03-23T02:19:59;8.70;99.90
19363;DHT22;9817;50.80926400;5.16316200;2024-03-23T02:22:33;8.70;99.90
19363;DHT22;9817;50.80926400;5.16316200;2024-03-23T02:24:59;8.60;99.90
19363;DHT22;9817;50.80926400;5.16316200;2024-03-23T02:27:25;8.70;99.90
19363;DHT22;9817;50.80926400;5.16316200;2024-03-23T02:29:50;8.50;99.90
19363;DHT22;9817;50.80926400;5.16316200;2024-03-23T02:32:16;8.50;99.90
19363;DHT22;9817;50.80926400;5.16316200;2024-03-23T02:34:41;8.50;99.90
19363;DHT22;9817;50.80926400;5.16316200;2024-03-23T02:37:11;8.50;99.90
19363;DHT22;9817;50.80926400;5.16316200;2024-03-23T02:39:37;8.70;99.90
19363;DHT22;9817;50.80926400;5.16316200;2024-03-23T02:42:03;8.70;99.90
19363;DHT22;9817;50.80926400;5.16316200;2024-03-23T02:44:28;8.70;99.90
19363;DHT22;9817;50.80926400;5.16316200;2024-03-23T02:46:54;8.80;99.90
19363;DHT22;9817;50.80926400;5.16316200;2024-03-23T02:49:19;8.80;99.90
19363;DHT22;9817;50.80926400;5.16316200;2024-03-23T02:51:46;8.80;99.90
19363;DHT22;9817;50.80926400;5.16316200;2024-03-23T02:54:14;8.70;99.90
19363;DHT22;9817;50.80926400;5.16316200;2024-03-23T02:56:40;8.70;99.90
19363;DHT22;9817;50.80926400;5.16316200;2024-03-23T02:59:05;8.70;99.90
19363;DHT22;9817;50.80926400;5.16316200;2024-03-23T03:01:31;8.70;99.90
19363;DHT22;9817;50.80926400;5.16316200;2024-03-23T03:03:56;8.50;99.90
19363;DHT22;9817;50.80926400;5.16316200;2024-03-23T03:06:26;8.40;99.90
19363;DHT22;9817;50.80926400;5.16316200;2024-03-23T03:08:52;8.40;99.90
19363;DHT22;9817;50.80926400;5.16316200;2024-03-23T03:11:18;8.40;99.90
19363;DHT22;9817;50.80926400;5.16316200;2024-03-23T03:13:44;8.30;99.90
19363;DHT22;9817;50.80926400;5.16316200;2024-03-23T03:16:12;8.20;99.90
19363;DHT22;9817;50.80926400;5.16316200;2024-03-23T03:18:38;8.20;99.90
19363;DHT22;9817;50.80926400;5.16316200;2024-03-23T03:21:06;8.20;99.90
19363;DHT22;9817;50.80926400;5.16316200;2024-03-23T03:23:39;8.40;99.90
19363;DHT22;9817;50.80926400;5.16316200;2024-03-23T03:26:05;8.50;99.90
19363;DHT22;9817;50.80926400;5.16316200;2024-03-23T03:28:34;8.60;99.90
19363;DHT22;9817;50.80926400;5.16316200;2024-03-23T03:31:00;8.70;99.90
19363;DHT22;9817;50.80926400;5.16316200;2024-03-23T03:33:29;8.80;99.90
19363;DHT22;9817;50.80926400;5.16316200;2024-03-23T03:35:55;8.80;99.90
19363;DHT22;9817;50.80926400;5.16316200;2024-03-23T03:38:20;8.80;99.90
19363;DHT22;9817;50.80926400;5.16316200;2024-03-23T03:40:46;8.90;99.90
19363;DHT22;9817;50.80926400;5.16316200;2024-03-23T03:43:12;8.70;99.90
19363;DHT22;9817;50.80926400;5.16316200;2024-03-23T03:45:38;8.70;99.90
19363;DHT22;9817;50.80926400;5.16316200;2024-03-23T03:48:04;8.80;99.90
19363;DHT22;9817;50.80926400;5.16316200;2024-03-23T03:50:30;8.80;99.90
19363;DHT22;9817;50.80926400;5.16316200;2024-03-23T03:52:56;8.50;99.90
19363;DHT22;9817;50.80926400;5.16316200;2024-03-23T03:55:21;8.60;99.90
19363;DHT22;9817;50.80926400;5.16316200;2024-03-23T03:57:47;8.40;99.90
19363;DHT22;9817;50.80926400;5.16316200;2024-03-23T04:00:13;8.40;99.90
19363;DHT22;9817;50.80926400;5.16316200;2024-03-23T04:02:39;8.40;99.90
19363;DHT22;9817;50.80926400;5.16316200;2024-03-23T04:05:04;8.40;99.90
19363;DHT22;9817;50.80926400;5.16316200;2024-03-23T04:07:30;8.40;99.90
19363;DHT22;9817;50.80926400;5.16316200;2024-03-23T04:09:56;8.40;99.90
19363;DHT22;9817;50.80926400;5.16316200;2024-03-23T04:12:22;8.50;99.90
19363;DHT22;9817;50.80926400;5.16316200;2024-03-23T04:14:48;8.60;99.90
19363;DHT22;9817;50.80926400;5.16316200;2024-03-23T04:17:14;8.60;99.90
19363;DHT22;9817;50.80926400;5.16316200;2024-03-23T04:19:39;8.70;99.90
19363;DHT22;9817;50.80926400;5.16316200;2024-03-23T04:22:05;8.60;99.90
19363;DHT22;9817;50.80926400;5.16316200;2024-03-23T04:24:30;8.50;99.90
19363;DHT22;9817;50.80926400;5.16316200;2024-03-23T04:26:56;8.40;99.90
19363;DHT22;9817;50.80926400;5.16316200;2024-03-23T04:29:22;8.40;99.90
19363;DHT22;9817;50.80926400;5.16316200;2024-03-23T04:31:47;8.50;99.90
19363;DHT22;9817;50.80926400;5.16316200;2024-03-23T04:34:13;8.40;99.90
19363;DHT22;9817;50.80926400;5.16316200;2024-03-23T04:36:39;8.40;99.90
19363;DHT22;9817;50.80926400;5.16316200;2024-03-23T04:39:05;8.30;99.90
19363;DHT22;9817;50.80926400;5.16316200;2024-03-23T04:41:34;8.20;99.90
19363;DHT22;9817;50.80926400;5.16316200;2024-03-23T04:44:00;8.20;99.90
19363;DHT22;9817;50.80926400;5.16316200;2024-03-23T04:46:26;8.10;99.90
19363;DHT22;9817;50.80926400;5.16316200;2024-03-23T04:48:52;8.00;99.90
19363;DHT22;9817;50.80926400;5.16316200;2024-03-23T04:51:23;8.00;99.90
19363;DHT22;9817;50.80926400;5.16316200;2024-03-23T04:53:49;8.00;99.90
19363;DHT22;9817;50.80926400;5.16316200;2024-03-23T04:56:16;8.00;99.90
19363;DHT22;9817;50.80926400;5.16316200;2024-03-23T04:58:42;8.10;99.90
19363;DHT22;9817;50.80926400;5.16316200;2024-03-23T05:01:08;8.00;99.90
19363;DHT22;9817;50.80926400;5.16316200;2024-03-23T05:03:34;8.00;99.90
19363;DHT22;9817;50.80926400;5.16316200;2024-03-23T05:05:59;7.90;99.90
19363;DHT22;9817;50.80926400;5.16316200;2024-03-23T05:08:25;8.10;99.90
19363;DHT22;9817;50.80926400;5.16316200;2024-03-23T05:10:51;8.10;99.90
19363;DHT22;9817;50.80926400;5.16316200;2024-03-23T05:13:17;8.20;99.90
19363;DHT22;9817;50.80926400;5.16316200;2024-03-23T05:15:42;8.00;99.90
19363;DHT22;9817;50.80926400;5.16316200;2024-03-23T05:18:08;8.10;99.90
19363;DHT22;9817;50.80926400;5.16316200;2024-03-23T05:20:34;8.10;99.90
19363;DHT22;9817;50.80926400;5.16316200;2024-03-23T05:22:59;8.00;99.90
19363;DHT22;9817;50.80926400;5.16316200;2024-03-23T05:25:25;8.00;99.90
19363;DHT22;9817;50.80926400;5.16316200;2024-03-23T05:27:51;8.10;99.90
19363;DHT22;9817;50.80926400;5.16316200;2024-03-23T05:30:16;8.20;99.90
19363;DHT22;9817;50.80926400;5.16316200;2024-03-23T05:32:42;8.20;99.90
19363;DHT22;9817;50.80926400;5.16316200;2024-03-23T05:35:09;8.20;99.90
19363;DHT22;9817;50.80926400;5.16316200;2024-03-23T05:37:35;8.30;99.90
19363;DHT22;9817;50.80926400;5.16316200;2024-03-23T05:40:01;8.20;99.90
19363;DHT22;9817;50.80926400;5.16316200;2024-03-23T05:42:26;8.20;99.90
19363;DHT22;9817;50.80926400;5.16316200;2024-03-23T05:44:52;8.20;99.90
19363;DHT22;9817;50.80926400;5.16316200;2024-03-23T05:47:18;8.20;99.90
19363;DHT22;9817;50.80926400;5.16316200;2024-03-23T05:49:46;8.20;99.90
19363;DHT22;9817;50.80926400;5.16316200;2024-03-23T05:52:11;8.10;99.90
19363;DHT22;9817;50.80926400;5.16316200;2024-03-23T05:54:37;8.00;99.90
19363;DHT22;9817;50.80926400;5.16316200;2024-03-23T05:57:03;8.00;99.90
19363;DHT22;9817;50.80926400;5.16316200;2024-03-23T05:59:29;8.00;99.90
19363;DHT22;9817;50.80926400;5.16316200;2024-03-23T06:01:55;8.10;99.90
19363;DHT22;9817;50.80926400;5.16316200;2024-03-23T06:04:20;8.20;99.90
19363;DHT22;9817;50.80926400;5.16316200;2024-03-23T06:06:50;8.10;99.90
19363;DHT22;9817;50.80926400;5.16316200;2024-03-23T06:09:17;8.00;99.90
19363;DHT22;9817;50.80926400;5.16316200;2024-03-23T06:11:43;8.10;99.90
19363;DHT22;9817;50.80926400;5.16316200;2024-03-23T06:14:09;8.10;99.90
19363;DHT22;9817;50.80926400;5.16316200;2024-03-23T06:16:34;8.10;99.90
19363;DHT22;9817;50.80926400;5.16316200;2024-03-23T06:19:00;8.00;99.90
19363;DHT22;9817;50.80926400;5.16316200;2024-03-23T06:21:26;8.00;99.90
19363;DHT22;9817;50.80926400;5.16316200;2024-03-23T06:23:53;8.10;99.90
19363;DHT22;9817;50.80926400;5.16316200;2024-03-23T06:26:19;8.10;99.90
19363;DHT22;9817;50.80926400;5.16316200;2024-03-23T06:28:45;8.10;99.90
19363;DHT22;9817;50.80926400;5.16316200;2024-03-23T06:31:11;8.10;99.90
19363;DHT22;9817;50.80926400;5.16316200;2024-03-23T06:33:37;8.20;99.90
19363;DHT22;9817;50.80926400;5.16316200;2024-03-23T06:36:06;8.40;99.90
19363;DHT22;9817;50.80926400;5.16316200;2024-03-23T06:38:34;8.60;99.90
19363;DHT22;9817;50.80926400;5.16316200;2024-03-23T06:41:02;8.90;99.90
19363;DHT22;9817;50.80926400;5.16316200;2024-03-23T06:43:28;9.00;99.90
19363;DHT22;9817;50.80926400;5.16316200;2024-03-23T06:45:54;9.40;99.90
19363;DHT22;9817;50.80926400;5.16316200;2024-03-23T06:48:20;9.90;99.90
19363;DHT22;9817;50.80926400;5.16316200;2024-03-23T06:50:46;10.50;99.90
19363;DHT22;9817;50.80926400;5.16316200;2024-03-23T06:53:13;11.30;99.90
19363;DHT22;9817;50.80926400;5.16316200;2024-03-23T06:55:39;11.40;99.90
19363;DHT22;9817;50.80926400;5.16316200;2024-03-23T06:58:04;11.70;99.90
19363;DHT22;9817;50.80926400;5.16316200;2024-03-23T07:00:31;11.60;99.90
19363;DHT22;9817;50.80926400;5.16316200;2024-03-23T07:02:57;11.30;99.90
19363;DHT22;9817;50.80926400;5.16316200;2024-03-23T07:05:23;11.10;99.90
19363;DHT22;9817;50.80926400;5.16316200;2024-03-23T07:07:49;11.00;99.90
19363;DHT22;9817;50.80926400;5.16316200;2024-03-23T07:10:15;10.50;99.90
19363;DHT22;9817;50.80926400;5.16316200;2024-03-23T07:12:41;10.30;99.90
19363;DHT22;9817;50.80926400;5.16316200;2024-03-23T07:15:07;9.90;99.90
19363;DHT22;9817;50.80926400;5.16316200;2024-03-23T07:17:33;9.70;99.90
19363;DHT22;9817;50.80926400;5.16316200;2024-03-23T07:20:01;9.80;99.90
19363;DHT22;9817;50.80926400;5.16316200;2024-03-23T07:22:31;9.80;99.90
19363;DHT22;9817;50.80926400;5.16316200;2024-03-23T07:25:00;9.90;99.90
19363;DHT22;9817;50.80926400;5.16316200;2024-03-23T07:27:26;10.20;99.90
19363;DHT22;9817;50.80926400;5.16316200;2024-03-23T07:29:52;10.30;99.90
19363;DHT22;9817;50.80926400;5.16316200;2024-03-23T07:32:17;10.30;99.90
19363;DHT22;9817;50.80926400;5.16316200;2024-03-23T07:34:43;10.30;99.90
19363;DHT22;9817;50.80926400;5.16316200;2024-03-23T07:37:10;10.40;99.90
19363;DHT22;9817;50.80926400;5.16316200;2024-03-23T07:39:35;10.40;99.90
19363;DHT22;9817;50.80926400;5.16316200;2024-03-23T07:42:02;10.30;99.90
19363;DHT22;9817;50.80926400;5.16316200;2024-03-23T07:44:27;10.50;99.90
19363;DHT22;9817;50.80926400;5.16316200;2024-03-23T07:46:53;10.50;99.90
19363;DHT22;9817;50.80926400;5.16316200;2024-03-23T07:49:19;10.40;99.90
19363;DHT22;9817;50.80926400;5.16316200;2024-03-23T07:51:44;10.30;99.90
19363;DHT22;9817;50.80926400;5.16316200;2024-03-23T07:54:10;10.30;99.90
19363;DHT22;9817;50.80926400;5.16316200;2024-03-23T07:56:36;11.00;99.90
19363;DHT22;9817;50.80926400;5.16316200;2024-03-23T07:59:01;11.40;99.90
19363;DHT22;9817;50.80926400;5.16316200;2024-03-23T08:01:28;11.60;99.90
19363;DHT22;9817;50.80926400;5.16316200;2024-03-23T08:03:54;11.70;99.90
19363;DHT22;9817;50.80926400;5.16316200;2024-03-23T08:06:21;11.40;99.90
19363;DHT22;9817;50.80926400;5.16316200;2024-03-23T08:08:49;10.90;99.90
19363;DHT22;9817;50.80926400;5.16316200;2024-03-23T08:11:16;10.20;99.90
19363;DHT22;9817;50.80926400;5.16316200;2024-03-23T08:13:42;9.50;99.90
19363;DHT22;9817;50.80926400;5.16316200;2024-03-23T08:16:10;9.30;99.90
19363;DHT22;9817;50.80926400;5.16316200;2024-03-23T08:18:35;9.20;99.90
19363;DHT22;9817;50.80926400;5.16316200;2024-03-23T08:21:05;9.10;99.90
19363;DHT22;9817;50.80926400;5.16316200;2024-03-23T08:23:34;9.10;99.90
19363;DHT22;9817;50.80926400;5.16316200;2024-03-23T08:26:05;9.20;99.90
19363;DHT22;9817;50.80926400;5.16316200;2024-03-23T08:28:31;9.40;99.90
19363;DHT22;9817;50.80926400;5.16316200;2024-03-23T08:31:00;9.50;99.90
19363;DHT22;9817;50.80926400;5.16316200;2024-03-23T08:33:26;9.80;99.90
19363;DHT22;9817;50.80926400;5.16316200;2024-03-23T08:35:59;10.40;99.90
19363;DHT22;9817;50.80926400;5.16316200;2024-03-23T08:38:26;11.20;99.90
19363;DHT22;9817;50.80926400;5.16316200;2024-03-23T08:41:02;11.90;99.90
19363;DHT22;9817;50.80926400;5.16316200;2024-03-23T08:43:29;12.80;99.90
19363;DHT22;9817;50.80926400;5.16316200;2024-03-23T08:46:23;13.60;99.90
19363;DHT22;9817;50.80926400;5.16316200;2024-03-23T08:48:49;14.00;99.90
19363;DHT22;9817;50.80926400;5.16316200;2024-03-23T08:51:16;14.50;99.90
19363;DHT22;9817;50.80926400;5.16316200;2024-03-23T08:53:42;14.60;99.90
19363;DHT22;9817;50.80926400;5.16316200;2024-03-23T08:56:09;14.80;99.90
19363;DHT22;9817;50.80926400;5.16316200;2024-03-23T08:58:36;15.10;99.90
19363;DHT22;9817;50.80926400;5.16316200;2024-03-23T09:01:07;15.40;99.90
19363;DHT22;9817;50.80926400;5.16316200;2024-03-23T09:03:33;15.70;99.90
19363;DHT22;9817;50.80926400;5.16316200;2024-03-23T09:05:59;15.20;99.90
19363;DHT22;9817;50.80926400;5.16316200;2024-03-23T09:08:25;14.20;99.90
19363;DHT22;9817;50.80926400;5.16316200;2024-03-23T09:10:52;14.00;99.90
19363;DHT22;9817;50.80926400;5.16316200;2024-03-23T09:13:17;14.40;99.90
19363;DHT22;9817;50.80926400;5.16316200;2024-03-23T09:15:50;14.70;99.90
19363;DHT22;9817;50.80926400;5.16316200;2024-03-23T09:18:17;14.60;99.90
19363;DHT22;9817;50.80926400;5.16316200;2024-03-23T09:20:42;15.00;99.90
19363;DHT22;9817;50.80926400;5.16316200;2024-03-23T09:23:08;14.60;99.90
19363;DHT22;9817;50.80926400;5.16316200;2024-03-23T09:25:38;14.50;99.90
19363;DHT22;9817;50.80926400;5.16316200;2024-03-23T09:28:05;14.20;99.90
19363;DHT22;9817;50.80926400;5.16316200;2024-03-23T09:30:32;13.90;99.90
19363;DHT22;9817;50.80926400;5.16316200;2024-03-23T09:32:58;13.20;99.90
19363;DHT22;9817;50.80926400;5.16316200;2024-03-23T09:35:24;12.40;99.90
19363;DHT22;9817;50.80926400;5.16316200;2024-03-23T09:37:49;12.00;99.90
19363;DHT22;9817;50.80926400;5.16316200;2024-03-23T09:40:15;12.50;99.90
19363;DHT22;9817;50.80926400;5.16316200;2024-03-23T09:42:41;13.50;99.90
19363;DHT22;9817;50.80926400;5.16316200;2024-03-23T09:45:17;14.00;99.90
19363;DHT22;9817;50.80926400;5.16316200;2024-03-23T09:47:45;13.80;99.90
19363;DHT22;9817;50.80926400;5.16316200;2024-03-23T09:50:13;13.40;99.90
19363;DHT22;9817;50.80926400;5.16316200;2024-03-23T09:52:39;13.60;99.90
19363;DHT22;9817;50.80926400;5.16316200;2024-03-23T09:55:10;14.30;99.90
19363;DHT22;9817;50.80926400;5.16316200;2024-03-23T09:57:36;14.50;99.90
19363;DHT22;9817;50.80926400;5.16316200;2024-03-23T10:00:02;14.70;99.90
19363;DHT22;9817;50.80926400;5.16316200;2024-03-23T10:02:29;14.90;99.90
19363;DHT22;9817;50.80926400;5.16316200;2024-03-23T10:04:55;14.60;99.90
19363;DHT22;9817;50.80926400;5.16316200;2024-03-23T10:07:21;14.30;99.90
19363;DHT22;9817;50.80926400;5.16316200;2024-03-23T10:09:49;14.10;99.90
19363;DHT22;9817;50.80926400;5.16316200;2024-03-23T10:12:19;13.50;99.90
19363;DHT22;9817;50.80926400;5.16316200;2024-03-23T10:14:45;12.60;99.90
19363;DHT22;9817;50.80926400;5.16316200;2024-03-23T10:17:20;12.50;99.90
19363;DHT22;9817;50.80926400;5.16316200;2024-03-23T10:19:47;12.90;99.90
19363;DHT22;9817;50.80926400;5.16316200;2024-03-23T10:22:20;13.00;99.90
19363;DHT22;9817;50.80926400;5.16316200;2024-03-23T10:24:47;12.80;99.90
19363;DHT22;9817;50.80926400;5.16316200;2024-03-23T10:27:17;12.50;99.90
19363;DHT22;9817;50.80926400;5.16316200;2024-03-23T10:29:47;12.60;99.90
19363;DHT22;9817;50.80926400;5.16316200;2024-03-23T10:32:14;12.80;99.90
19363;DHT22;9817;50.80926400;5.16316200;2024-03-23T10:34:40;13.10;99.90
19363;DHT22;9817;50.80926400;5.16316200;2024-03-23T10:37:07;12.90;99.90
19363;DHT22;9817;50.80926400;5.16316200;2024-03-23T10:39:38;13.10;99.90
19363;DHT22;9817;50.80926400;5.16316200;2024-03-23T10:42:05;12.80;99.90
19363;DHT22;9817;50.80926400;5.16316200;2024-03-23T10:44:31;12.40;99.90
19363;DHT22;9817;50.80926400;5.16316200;2024-03-23T10:47:06;12.70;99.90
19363;DHT22;9817;50.80926400;5.16316200;2024-03-23T10:49:33;12.40;99.90
19363;DHT22;9817;50.80926400;5.16316200;2024-03-23T10:52:01;12.10;99.90
19363;DHT22;9817;50.80926400;5.16316200;2024-03-23T10:54:27;11.80;99.90
19363;DHT22;9817;50.80926400;5.16316200;2024-03-23T10:59:22;11.40;99.90
19363;DHT22;9817;50.80926400;5.16316200;2024-03-23T11:02:00;11.40;99.90
19363;DHT22;9817;50.80926400;5.16316200;2024-03-23T11:06:57;11.40;99.90
19363;DHT22;9817;50.80926400;5.16316200;2024-03-23T11:15:11;12.50;99.90
19363;DHT22;9817;50.80926400;5.16316200;2024-03-23T11:17:34;12.60;99.90
19363;DHT22;9817;50.80926400;5.16316200;2024-03-23T11:20:01;12.50;99.90
19363;DHT22;9817;50.80926400;5.16316200;2024-03-23T11:22:46;12.40;99.90
19363;DHT22;9817;50.80926400;5.16316200;2024-03-23T11:25:22;12.00;99.90
19363;DHT22;9817;50.80926400;5.16316200;2024-03-23T11:28:11;12.00;99.90
19363;DHT22;9817;50.80926400;5.16316200;2024-03-23T11:30:37;11.80;99.90
19363;DHT22;9817;50.80926400;5.16316200;2024-03-23T11:33:04;11.80;99.90
19363;DHT22;9817;50.80926400;5.16316200;2024-03-23T11:35:40;11.90;99.90
19363;DHT22;9817;50.80926400;5.16316200;2024-03-23T11:38:12;12.20;99.90
19363;DHT22;9817;50.80926400;5.16316200;2024-03-23T11:40:42;12.10;99.90
19363;DHT22;9817;50.80926400;5.16316200;2024-03-23T11:43:13;12.00;99.90
19363;DHT22;9817;50.80926400;5.16316200;2024-03-23T11:45:44;12.20;99.90
19363;DHT22;9817;50.80926400;5.16316200;2024-03-23T11:48:12;12.40;99.90
19363;DHT22;9817;50.80926400;5.16316200;2024-03-23T11:50:42;12.40;99.90
19363;DHT22;9817;50.80926400;5.16316200;2024-03-23T11:56:02;12.10;99.90
19363;DHT22;9817;50.80926400;5.16316200;2024-03-23T11:58:27;11.90;99.90
19363;DHT22;9817;50.80926400;5.16316200;2024-03-23T12:00:57;11.90;99.90
19363;DHT22;9817;50.80926400;5.16316200;2024-03-23T12:03:24;12.10;99.90
19363;DHT22;9817;50.80926400;5.16316200;2024-03-23T12:05:55;12.60;99.90
19363;DHT22;9817;50.80926400;5.16316200;2024-03-23T12:08:38;13.20;99.90
19363;DHT22;9817;50.80926400;5.16316200;2024-03-23T12:13:39;13.70;99.90
19363;DHT22;9817;50.80926400;5.16316200;2024-03-23T12:16:14;13.80;99.90
19363;DHT22;9817;50.80926400;5.16316200;2024-03-23T12:18:42;13.70;99.90
19363;DHT22;9817;50.80926400;5.16316200;2024-03-23T12:21:08;13.10;99.90
19363;DHT22;9817;50.80926400;5.16316200;2024-03-23T12:23:34;13.00;99.90
19363;DHT22;9817;50.80926400;5.16316200;2024-03-23T12:26:00;12.70;99.90
19363;DHT22;9817;50.80926400;5.16316200;2024-03-23T12:28:27;12.80;99.90
19363;DHT22;9817;50.80926400;5.16316200;2024-03-23T12:30:53;13.30;99.90
19363;DHT22;9817;50.80926400;5.16316200;2024-03-23T12:33:20;13.70;99.90
19363;DHT22;9817;50.80926400;5.16316200;2024-03-23T12:35:45;13.90;99.90
19363;DHT22;9817;50.80926400;5.16316200;2024-03-23T12:38:11;13.90;99.90
19363;DHT22;9817;50.80926400;5.16316200;2024-03-23T12:40:37;13.80;99.90
19363;DHT22;9817;50.80926400;5.16316200;2024-03-23T12:43:02;13.60;99.90
19363;DHT22;9817;50.80926400;5.16316200;2024-03-23T12:45:28;13.50;99.90
19363;DHT22;9817;50.80926400;5.16316200;2024-03-23T12:47:53;13.60;99.90
19363;DHT22;9817;50.80926400;5.16316200;2024-03-23T12:50:20;13.50;99.90
19363;DHT22;9817;50.80926400;5.16316200;2024-03-23T12:52:46;13.30;99.90
19363;DHT22;9817;50.80926400;5.16316200;2024-03-23T12:55:12;12.90;99.90
19363;DHT22;9817;50.80926400;5.16316200;2024-03-23T12:57:37;12.70;99.90
19363;DHT22;9817;50.80926400;5.16316200;2024-03-23T13:00:04;12.50;99.90
19363;DHT22;9817;50.80926400;5.16316200;2024-03-23T13:02:30;12.60;99.90
19363;DHT22;9817;50.80926400;5.16316200;2024-03-23T13:04:56;12.60;99.90
19363;DHT22;9817;50.80926400;5.16316200;2024-03-23T13:07:22;12.50;99.90
19363;DHT22;9817;50.80926400;5.16316200;2024-03-23T13:09:52;12.50;99.90
19363;DHT22;9817;50.80926400;5.16316200;2024-03-23T13:12:19;12.40;99.90
19363;DHT22;9817;50.80926400;5.16316200;2024-03-23T13:14:46;12.30;99.90
19363;DHT22;9817;50.80926400;5.16316200;2024-03-23T13:17:12;12.50;99.90
19363;DHT22;9817;50.80926400;5.16316200;2024-03-23T13:19:37;12.70;99.90
19363;DHT22;9817;50.80926400;5.16316200;2024-03-23T13:22:04;12.60;99.90
19363;DHT22;9817;50.80926400;5.16316200;2024-03-23T13:24:29;12.50;99.90
19363;DHT22;9817;50.80926400;5.16316200;2024-03-23T13:26:56;12.20;99.90
19363;DHT22;9817;50.80926400;5.16316200;2024-03-23T13:29:23;12.10;99.90
19363;DHT22;9817;50.80926400;5.16316200;2024-03-23T13:31:50;12.00;99.90
19363;DHT22;9817;50.80926400;5.16316200;2024-03-23T13:34:16;11.80;99.90
19363;DHT22;9817;50.80926400;5.16316200;2024-03-23T13:36:46;12.10;99.90
19363;DHT22;9817;50.80926400;5.16316200;2024-03-23T13:39:13;12.60;99.90
19363;DHT22;9817;50.80926400;5.16316200;2024-03-23T13:41:39;12.60;99.90
19363;DHT22;9817;50.80926400;5.16316200;2024-03-23T13:44:06;12.40;99.90
19363;DHT22;9817;50.80926400;5.16316200;2024-03-23T13:46:32;12.50;99.90
19363;DHT22;9817;50.80926400;5.16316200;2024-03-23T13:48:58;12.50;99.90
19363;DHT22;9817;50.80926400;5.16316200;2024-03-23T13:51:24;12.40;99.90
19363;DHT22;9817;50.80926400;5.16316200;2024-03-23T13:53:53;12.30;99.90
19363;DHT22;9817;50.80926400;5.16316200;2024-03-23T13:56:18;12.20;99.90
19363;DHT22;9817;50.80926400;5.16316200;2024-03-23T13:58:44;12.40;99.90
19363;DHT22;9817;50.80926400;5.16316200;2024-03-23T14:01:15;12.50;99.90
19363;DHT22;9817;50.80926400;5.16316200;2024-03-23T14:03:41;12.60;99.90
19363;DHT22;9817;50.80926400;5.16316200;2024-03-23T14:06:08;12.60;99.90
19363;DHT22;9817;50.80926400;5.16316200;2024-03-23T14:08:35;12.70;99.90
19363;DHT22;9817;50.80926400;5.16316200;2024-03-23T14:11:02;12.90;99.90
19363;DHT22;9817;50.80926400;5.16316200;2024-03-23T14:13:28;13.10;99.90
19363;DHT22;9817;50.80926400;5.16316200;2024-03-23T14:15:54;13.30;99.90
19363;DHT22;9817;50.80926400;5.16316200;2024-03-23T14:18:20;13.50;99.90
19363;DHT22;9817;50.80926400;5.16316200;2024-03-23T14:20:45;13.40;99.90
19363;DHT22;9817;50.80926400;5.16316200;2024-03-23T14:23:11;13.10;99.90
19363;DHT22;9817;50.80926400;5.16316200;2024-03-23T14:25:37;13.10;99.90
19363;DHT22;9817;50.80926400;5.16316200;2024-03-23T14:28:02;13.10;99.90
19363;DHT22;9817;50.80926400;5.16316200;2024-03-23T14:30:28;13.10;99.90
19363;DHT22;9817;50.80926400;5.16316200;2024-03-23T14:32:53;13.40;99.90
19363;DHT22;9817;50.80926400;5.16316200;2024-03-23T14:35:19;13.30;99.90
19363;DHT22;9817;50.80926400;5.16316200;2024-03-23T14:37:45;12.80;99.90
19363;DHT22;9817;50.80926400;5.16316200;2024-03-23T14:40:12;12.60;99.90
19363;DHT22;9817;50.80926400;5.16316200;2024-03-23T14:42:38;12.70;99.90
19363;DHT22;9817;50.80926400;5.16316200;2024-03-23T14:48:07;13.00;99.90